createdAt,value
2022-12-27T00:00:19.425Z,60.77
2022-12-27T00:05:15.688Z,58.73
2022-12-27T00:10:11.798Z,49.87
2022-12-27T00:15:05.732Z,57.93
2022-12-27T00:19:58.947Z,53.73
2022-12-27T00:24:52.711Z,56.63
2022-12-27T00:29:47.273Z,46.47
2022-12-27T00:34:40.591Z,43.73
2022-12-27T00:39:33.800Z,41.37
2022-12-27T00:44:27.081Z,38.00
2022-12-27T00:49:26.340Z,37.60
2022-12-27T00:54:19.893Z,40.37
2022-12-27T00:59:13.367Z,39.50
2022-12-27T01:04:07.512Z,39.10
2022-12-27T01:09:03.281Z,33.93
2022-12-27T01:14:00.516Z,41.90
2022-12-27T01:18:57.573Z,42.03
2022-12-27T01:23:51.127Z,39.03
2022-12-27T01:28:45.922Z,44.40
2022-12-27T01:33:39.763Z,42.50
2022-12-27T01:38:33.077Z,45.87
2022-12-27T01:43:39.265Z,39.37
2022-12-27T01:48:34.022Z,39.27
2022-12-27T01:53:31.347Z,40.57
2022-12-27T01:58:29.876Z,35.60
2022-12-27T02:03:28.444Z,94.57
2022-12-27T02:08:38.960Z,33.30
2022-12-27T02:13:35.944Z,35.03
2022-12-27T02:18:29.477Z,30.53
2022-12-27T02:24:04.674Z,32.13
2022-12-27T02:29:11.560Z,35.47
2022-12-27T02:34:11.565Z,23.83
2022-12-27T02:39:06.684Z,25.58
2022-12-27T02:44:17.257Z,26.53
2022-12-27T02:49:43.847Z,32.60
2022-12-27T02:54:54.070Z,35.20
2022-12-27T03:00:21.120Z,46.50
2022-12-27T03:05:26.008Z,43.57
2022-12-27T03:10:45.615Z,38.47
2022-12-27T03:15:57.431Z,32.43
2022-12-27T03:21:09.871Z,32.80
2022-12-27T03:26:05.348Z,34.10
2022-12-27T03:31:21.507Z,33.47
2022-12-27T03:36:37.656Z,34.33
2022-12-27T03:41:53.271Z,33.63
2022-12-27T03:46:47.534Z,31.37
2022-12-27T03:51:46.069Z,36.80
2022-12-27T03:56:41.942Z,35.63
2022-12-27T04:01:36.361Z,28.87
2022-12-27T04:06:29.765Z,31.97
2022-12-27T04:11:41.732Z,30.97
2022-12-27T04:16:52.373Z,32.70
2022-12-27T04:22:03.038Z,35.80
2022-12-27T04:27:15.385Z,38.95
2022-12-27T04:32:26.245Z,43.50
2022-12-27T04:37:21.285Z,31.27
2022-12-27T04:42:33.464Z,39.70
2022-12-27T04:47:44.632Z,40.50
2022-12-27T04:57:50.510Z,39.00
2022-12-27T05:02:43.977Z,32.40
2022-12-27T05:07:56.042Z,40.70
2022-12-27T05:13:04.494Z,29.57
2022-12-27T05:17:58.953Z,27.87
2022-12-27T05:23:09.467Z,31.33
2022-12-27T05:28:04.199Z,37.45
2022-12-27T05:32:57.510Z,34.97
2022-12-27T05:37:54.851Z,35.50
2022-12-27T05:42:48.474Z,39.47
2022-12-27T05:47:43.628Z,37.43
2022-12-27T05:52:40.983Z,40.93
2022-12-27T05:57:34.752Z,49.00
2022-12-27T06:02:28.200Z,58.60
2022-12-27T06:07:23.044Z,39.03
2022-12-27T06:12:16.376Z,29.13
2022-12-27T06:17:09.601Z,31.53
2022-12-27T06:22:03.043Z,64.97
2022-12-27T06:26:57.623Z,32.90
2022-12-27T06:31:51.088Z,53.20
2022-12-27T06:36:49.918Z,49.10
2022-12-27T06:41:43.456Z,43.77
2022-12-27T06:46:38.378Z,53.53
2022-12-27T06:51:31.889Z,40.87
2022-12-27T06:56:25.081Z,40.27
2022-12-27T07:01:22.340Z,40.97
2022-12-27T07:06:17.075Z,51.40
2022-12-27T07:11:12.724Z,77.80
2022-12-27T07:16:06.801Z,78.10
2022-12-27T07:21:06.559Z,71.17
2022-12-27T07:26:08.145Z,64.10
2022-12-27T07:31:10.470Z,69.40
2022-12-27T07:36:05.650Z,95.60
2022-12-27T07:41:00.394Z,184.43
2022-12-27T07:45:55.282Z,171.13
2022-12-27T07:50:55.605Z,176.90
2022-12-27T07:55:49.068Z,168.93
2022-12-27T08:00:44.475Z,164.90
2022-12-27T08:05:39.564Z,121.23
2022-12-27T08:10:34.121Z,103.40
2022-12-27T08:15:27.707Z,69.10
2022-12-27T08:20:23.383Z,54.43
2022-12-27T08:25:19.526Z,51.17
2022-12-27T08:30:13.710Z,39.60
2022-12-27T08:35:41.731Z,31.05
2022-12-27T08:40:24.624Z,25.98
2022-12-27T08:45:18.348Z,23.75
2022-12-27T08:50:14.133Z,22.52
2022-12-27T08:55:08.914Z,16.38
2022-12-27T09:00:09.798Z,18.17
2022-12-27T09:05:03.210Z,18.95
2022-12-27T09:09:56.899Z,17.05
2022-12-27T09:14:51.221Z,16.70
2022-12-27T09:19:46.118Z,21.70
2022-12-27T09:24:39.468Z,24.77
2022-12-27T09:29:32.925Z,18.27
2022-12-27T09:34:29.423Z,19.20
2022-12-27T09:39:38.045Z,23.30
2022-12-27T09:44:39.440Z,23.02
2022-12-27T09:49:36.828Z,15.48
2022-12-27T09:54:41.274Z,17.42
2022-12-27T09:59:46.339Z,16.00
2022-12-27T10:05:17.672Z,14.43
2022-12-27T10:10:02.168Z,13.40
2022-12-27T10:15:17.630Z,16.33
2022-12-27T10:20:22.929Z,12.20
2022-12-27T10:25:20.671Z,12.93
2022-12-27T10:30:20.015Z,13.63
2022-12-27T10:35:19.275Z,16.75
2022-12-27T10:40:27.628Z,25.17
2022-12-27T10:45:27.661Z,15.70
2022-12-27T10:50:27.502Z,14.00
2022-12-27T10:55:35.547Z,16.00
2022-12-27T11:00:34.861Z,13.43
2022-12-27T11:05:30.235Z,13.87
2022-12-27T11:10:26.107Z,15.48
2022-12-27T11:15:21.078Z,13.52
2022-12-27T11:20:26.818Z,13.95
2022-12-27T11:25:27.468Z,10.95
2022-12-27T11:30:30.094Z,16.05
2022-12-27T11:35:24.640Z,13.15
2022-12-27T11:40:33.616Z,12.88
2022-12-27T11:45:38.089Z,15.23
2022-12-27T11:50:44.548Z,18.60
2022-12-27T11:55:58.824Z,14.25
2022-12-27T12:01:05.640Z,17.40
2022-12-27T12:06:10.025Z,14.73
2022-12-27T12:11:16.725Z,14.68
2022-12-27T12:16:46.673Z,16.85
2022-12-27T12:21:56.076Z,15.13
2022-12-27T12:27:03.142Z,13.48
2022-12-27T12:32:25.293Z,15.68
2022-12-27T12:37:32.130Z,16.08
2022-12-27T12:42:48.593Z,15.32
2022-12-27T12:48:06.148Z,16.10
2022-12-27T12:53:27.091Z,19.45
2022-12-27T12:58:40.318Z,17.35
2022-12-27T13:04:03.496Z,17.25
2022-12-27T13:09:10.367Z,15.70
2022-12-27T13:14:30.154Z,16.10
2022-12-27T13:19:43.174Z,18.13
2022-12-27T13:24:52.099Z,17.13
2022-12-27T13:30:04.531Z,14.18
2022-12-27T13:35:20.190Z,18.77
2022-12-27T13:40:30.467Z,15.18
2022-12-27T13:45:40.372Z,15.27
2022-12-27T13:50:54.198Z,17.97
2022-12-27T13:55:57.537Z,15.13
2022-12-27T14:01:01.333Z,20.20
2022-12-27T14:06:33.199Z,22.30
2022-12-27T14:11:40.247Z,17.95
2022-12-27T14:16:42.817Z,19.77
2022-12-27T14:21:57.421Z,14.77
2022-12-27T14:27:18.932Z,21.90
2022-12-27T14:32:41.217Z,14.80
2022-12-27T14:38:12.992Z,15.25
2022-12-27T14:43:50.989Z,19.70
2022-12-27T14:49:12.712Z,24.27
2022-12-27T14:54:46.929Z,23.48
2022-12-27T14:59:51.810Z,26.50
2022-12-27T15:05:01.558Z,19.60
2022-12-27T15:10:05.917Z,13.50
2022-12-27T15:15:16.816Z,14.80
2022-12-27T15:20:33.560Z,16.08
2022-12-27T15:25:44.184Z,18.67
2022-12-27T15:30:48.342Z,13.95
2022-12-27T15:35:52.892Z,17.02
2022-12-27T15:41:15.659Z,11.48
2022-12-27T15:46:24.259Z,16.65
2022-12-27T15:51:31.101Z,16.58
2022-12-27T15:56:44.583Z,17.52
2022-12-27T16:01:39.350Z,15.45
2022-12-27T16:06:58.952Z,13.68
2022-12-27T16:12:05.891Z,17.33
2022-12-27T16:17:24.626Z,15.05
2022-12-27T16:22:26.549Z,23.67
2022-12-27T16:27:31.443Z,15.13
2022-12-27T16:32:30.911Z,13.65
2022-12-27T16:37:31.401Z,11.60
2022-12-27T16:42:41.210Z,9.77
2022-12-27T16:48:03.512Z,13.63
2022-12-27T16:53:10.194Z,11.73
2022-12-27T16:58:33.950Z,12.93
2022-12-27T17:03:33.720Z,10.23
2022-12-27T17:08:27.484Z,10.90
2022-12-27T17:13:24.398Z,17.48
2022-12-27T17:18:28.886Z,19.40
2022-12-27T17:23:23.469Z,17.83
2022-12-27T17:28:26.401Z,11.63
2022-12-27T17:33:37.677Z,11.82
2022-12-27T17:38:44.628Z,11.52
2022-12-27T17:44:06.582Z,15.40
2022-12-27T17:49:01.882Z,24.42
2022-12-27T17:54:13.860Z,21.73
2022-12-27T17:59:14.622Z,18.13
2022-12-27T18:04:09.678Z,17.63
2022-12-27T18:09:03.428Z,16.95
2022-12-27T18:14:00.793Z,16.02
2022-12-27T18:19:00.266Z,10.02
2022-12-27T18:23:57.014Z,12.07
2022-12-27T18:28:50.596Z,14.18
2022-12-27T18:33:47.126Z,14.40
2022-12-27T18:38:45.920Z,15.23
2022-12-27T18:43:46.346Z,12.27
2022-12-27T18:53:40.830Z,13.77
2022-12-27T18:59:04.678Z,10.80
2022-12-27T19:04:25.010Z,18.60
2022-12-27T19:09:20.992Z,11.13
2022-12-27T19:14:22.999Z,11.25
2022-12-27T19:19:21.089Z,9.93
2022-12-27T19:24:39.168Z,10.45
2022-12-27T19:29:39.406Z,13.15
2022-12-27T19:34:44.856Z,12.27
2022-12-27T19:39:40.386Z,8.57
2022-12-27T19:44:35.803Z,7.38
2022-12-27T19:49:43.117Z,11.77
2022-12-27T19:54:37.074Z,9.25
2022-12-27T19:59:30.293Z,10.02
2022-12-27T20:04:25.147Z,8.13
2022-12-27T20:09:20.645Z,8.18
2022-12-27T20:14:14.813Z,8.73
2022-12-27T20:19:08.242Z,8.82
2022-12-27T20:24:02.932Z,9.80
2022-12-27T20:28:56.219Z,9.15
2022-12-27T20:33:53.425Z,8.13
2022-12-27T20:38:47.799Z,6.90
2022-12-27T20:43:45.762Z,9.43
2022-12-27T20:48:40.281Z,6.88
2022-12-27T20:53:33.740Z,9.05
2022-12-27T20:58:27.297Z,7.68
2022-12-27T21:03:22.027Z,7.32
2022-12-27T21:08:20.123Z,8.48
2022-12-27T21:13:13.401Z,7.15
2022-12-27T21:18:09.640Z,8.50
2022-12-27T21:23:04.358Z,7.65
2022-12-27T21:27:57.824Z,9.30
2022-12-27T21:32:51.171Z,7.72
2022-12-27T21:37:44.508Z,7.93
2022-12-27T21:42:39.183Z,8.43
2022-12-27T21:47:32.534Z,8.05
2022-12-27T21:52:25.721Z,7.38
2022-12-27T21:57:19.008Z,8.52
2022-12-27T22:02:17.196Z,8.90
2022-12-27T22:07:10.516Z,15.48
2022-12-27T22:12:03.810Z,11.85
2022-12-27T22:17:00.166Z,9.57
2022-12-27T22:21:54.808Z,7.57
2022-12-27T22:26:50.418Z,7.25
2022-12-27T22:31:44.113Z,9.55
2022-12-27T22:36:40.956Z,8.80
2022-12-27T22:41:37.896Z,7.47
2022-12-27T22:46:58.668Z,7.80
2022-12-27T22:51:48.283Z,8.13
2022-12-27T22:56:44.081Z,8.98
2022-12-27T23:01:37.527Z,8.25
2022-12-27T23:06:32.378Z,8.02
2022-12-27T23:11:28.098Z,9.02
2022-12-27T23:16:22.783Z,9.43
2022-12-27T23:21:20.731Z,11.10
2022-12-27T23:26:19.939Z,8.50
2022-12-27T23:31:14.656Z,10.02
2022-12-27T23:36:10.095Z,9.38
2022-12-27T23:41:05.725Z,10.20
2022-12-27T23:46:05.918Z,10.68
2022-12-27T23:50:59.296Z,12.55
2022-12-27T23:55:58.348Z,10.40
